Terminal Aerodrome Forecast
Issued by NWS

Home | Current Version | Previous Version | Text Only | Print | Product List | Glossary On
Versions: 1 2 3 4 5 6 7 8 9 10 11 12 13 14 15 16 17 18
821
FTUS43 KIND 092011 AAA
TAFHUF
TAF AMD
KHUF 092011Z 0920/1018 30014G20KT P6SM -SHSN SCT015 OVC020
      TEMPO 0920/0922 2SM -SHSN BKN015 OVC020
     FM100000 29012G20KT P6SM SCT012 OVC025=

USA.gov is the U.S. government's official web portal to all federal, state and local government web resources and services.